Time;durP1;ratioP1;P1;durP2;ratioP2;P2;SDS_P1;SDS_P2;PMS_P1;PMS_P2;Temp;Humidity;BMP_temperature;BMP_pressure;BME280_temperature;BME280_humidity;BME280_pressure;Samples;Min_cycle;Max_cycle;Signal;HPM_P1;HPM_P2
2022/06/11 00:01:51;;;;;;;60.77;41.90;;;;;;;15.47;100.00;100200.23;1716242;82;21226;-59
2022/06/11 00:04:29;;;;;;;54.60;39.00;;;;;;;15.43;100.00;100212.19;1719512;82;22017;-58
2022/06/11 00:07:01;;;;;;;53.43;38.53;;;;;;;15.39;100.00;100211.53;1705728;82;21060;-58
2022/06/11 00:09:31;;;;;;;55.60;36.33;;;;;;;15.28;100.00;100214.34;1712646;82;21616;-67
2022/06/11 00:11:58;;;;;;;44.07;31.00;;;;;;;15.13;100.00;100215.97;1714441;82;21096;-60
2022/06/11 00:14:30;;;;;;;46.17;30.23;;;;;;;15.04;100.00;100219.89;1716075;82;21276;-67
2022/06/11 00:16:58;;;;;;;44.60;29.53;;;;;;;14.76;100.00;100222.37;1713057;82;21160;-59
2022/06/11 00:19:25;;;;;;;43.47;29.73;;;;;;;14.76;100.00;100222.37;1715320;82;21082;-59
2022/06/11 00:21:53;;;;;;;46.80;31.57;;;;;;;14.71;100.00;100216.95;1711964;83;21770;-57
2022/06/11 00:24:21;;;;;;;41.13;30.50;;;;;;;14.71;100.00;100206.98;1715234;82;21064;-57
2022/06/11 00:26:49;;;;;;;42.53;31.50;;;;;;;14.69;100.00;100207.67;1716606;82;21719;-63
2022/06/11 00:29:17;;;;;;;47.87;31.70;;;;;;;14.69;100.00;100207.67;1709152;83;20895;-58
2022/06/11 00:31:44;;;;;;;46.93;31.23;;;;;;;14.70;100.00;100200.92;1717326;82;22119;-58
2022/06/11 00:34:12;;;;;;;45.80;33.20;;;;;;;14.70;100.00;100196.98;1710375;83;21655;-58
2022/06/11 00:36:39;;;;;;;46.53;31.53;;;;;;;14.79;100.00;100200.95;1710442;83;20952;-57
2022/06/11 00:39:07;;;;;;;43.33;30.00;;;;;;;14.79;100.00;100204.89;1712521;82;21822;-63
2022/06/11 00:41:38;;;;;;;42.03;30.60;;;;;;;14.89;100.00;100206.23;1716213;82;22045;-57
2022/06/11 00:44:05;;;;;;;41.73;28.90;;;;;;;14.92;100.00;100211.06;1710948;82;21771;-58
2022/06/11 00:46:43;;;;;;;44.13;29.77;;;;;;;14.94;100.00;100217.72;1715337;82;20942;-58
2022/06/11 00:49:28;;;;;;;44.47;29.60;;;;;;;14.93;100.00;100219.25;1704323;82;22501;-57
2022/06/11 00:52:16;;;;;;;38.37;28.93;;;;;;;14.84;100.00;100215.55;1715107;82;21147;-60
2022/06/11 00:54:47;;;;;;;41.03;28.20;;;;;;;14.78;100.00;100211.16;1687331;83;23034;-58
2022/06/11 00:57:15;;;;;;;39.47;29.67;;;;;;;14.68;100.00;100212.12;1716309;82;22199;-58
2022/06/11 00:59:46;;;;;;;45.73;29.47;;;;;;;14.63;100.00;100216.41;1716605;82;21643;-58
2022/06/11 01:02:13;;;;;;;43.87;30.70;;;;;;;14.55;100.00;100212.21;1717040;82;21057;-64
2022/06/11 01:04:58;;;;;;;48.80;30.67;;;;;;;14.50;100.00;100209.39;1714782;82;21550;-59
2022/06/11 01:08:08;;;;;;;46.83;31.13;;;;;;;14.44;100.00;100216.27;1715166;82;20942;-57
2022/06/11 01:10:56;;;;;;;47.97;30.23;;;;;;;14.39;100.00;100213.45;1715717;82;21754;-58
2022/06/11 01:13:52;;;;;;;48.53;32.60;;;;;;;14.33;100.00;100212.98;1713880;82;21826;-59
2022/06/11 01:16:49;;;;;;;39.10;28.93;;;;;;;14.28;100.00;100211.47;1711563;82;22390;-65
2022/06/11 01:19:49;;;;;;;47.87;30.80;;;;;;;14.20;100.00;100207.78;1713010;82;22084;-60
2022/06/11 01:22:49;;;;;;;42.47;30.90;;;;;;;14.17;100.00;100211.64;1710079;82;21735;-65
2022/06/11 01:25:32;;;;;;;39.00;28.67;;;;;;;14.16;100.00;100222.32;1718457;82;21679;-57
2022/06/11 01:28:16;;;;;;;48.73;28.90;;;;;;;14.09;100.00;100223.16;1707015;82;21717;-58
2022/06/11 01:31:06;;;;;;;45.23;29.87;;;;;;;14.08;100.00;100225.97;1719007;82;22362;-61
2022/06/11 01:33:47;;;;;;;43.47;30.10;;;;;;;14.10;100.00;100230.01;1715080;82;22303;-58
2022/06/11 01:36:25;;;;;;;43.70;30.45;;;;;;;14.14;100.00;100222.53;1716657;82;21746;-59
2022/06/11 01:39:27;;;;;;;48.53;30.37;;;;;;;14.22;100.00;100232.79;1720809;82;21613;-58
2022/06/11 01:42:01;;;;;;;42.57;28.10;;;;;;;14.26;100.00;100224.80;1717487;82;22312;-57
2022/06/11 01:44:33;;;;;;;41.77;30.40;;;;;;;14.30;100.00;100219.95;1716263;82;21652;-59
2022/06/11 01:47:00;;;;;;;;;;;;;;;14.32;100.00;100223.98;1721464;82;21806;-57
2022/06/11 01:49:33;;;;;;;40.87;27.40;;;;;;;14.36;100.00;100227.00;1715837;82;20183;-66
2022/06/11 01:52:28;;;;;;;39.47;26.13;;;;;;;14.45;100.00;100226.25;1716731;82;21865;-57
2022/06/11 01:55:32;;;;;;;39.17;27.70;;;;;;;14.53;100.00;100225.52;1704393;82;21769;-66
2022/06/11 01:58:13;;;;;;;39.67;26.57;;;;;;;14.58;100.00;100227.51;1707986;82;21661;-63
2022/06/11 02:00:45;;;;;;;36.53;26.90;;;;;;;14.94;100.00;100225.59;1717728;82;21743;-57
2022/06/11 02:03:43;;;;;;;39.50;26.97;;;;;;;15.37;100.00;100236.68;1712712;82;21016;-56
2022/06/11 02:06:36;;;;;;;40.17;28.23;;;;;;;15.84;100.00;100225.80;1711669;82;21751;-59
2022/06/11 02:09:13;;;;;;;47.57;31.47;;;;;;;16.49;100.00;100224.72;1710927;82;21506;-63
2022/06/11 02:11:47;;;;;;;46.73;31.93;;;;;;;17.10;100.00;100232.89;1694871;82;21058;-58
2022/06/11 02:14:44;;;;;;;42.00;30.50;;;;;;;17.70;100.00;100234.02;1694994;83;21853;-57
2022/06/11 02:17:31;;;;;;;40.53;30.47;;;;;;;18.22;100.00;100227.98;1716551;82;21902;-57
2022/06/11 02:20:13;;;;;;;46.90;31.80;;;;;;;18.68;100.00;100227.03;1720256;82;21068;-57
2022/06/11 02:22:55;;;;;;;46.08;33.42;;;;;;;19.24;100.00;100222.41;1716016;82;21108;-56
2022/06/11 02:25:30;;;;;;;50.90;32.47;;;;;;;19.72;100.00;100218.39;1719354;82;21026;-58
2022/06/11 02:27:59;;;;;;;41.80;30.63;;;;;;;20.23;100.00;100212.39;1714914;82;22429;-62
2022/06/11 02:30:29;;;;;;;44.15;31.10;;;;;;;20.93;100.00;100215.50;1715323;82;21050;-57
2022/06/11 02:32:57;;;;;;;40.03;29.93;;;;;;;21.58;100.00;100217.58;1715232;82;21426;-57
2022/06/11 02:35:40;;;;;;;46.23;30.57;;;;;;;22.26;100.00;100217.64;1720616;82;21074;-57
2022/06/11 02:38:12;;;;;;;44.23;32.40;;;;;;;22.92;100.00;100216.97;1709851;83;21423;-58
2022/06/11 02:40:49;;;;;;;40.20;31.53;;;;;;;23.55;100.00;100223.55;1677556;85;21954;-58
2022/06/11 02:43:16;;;;;;;42.47;32.87;;;;;;;24.01;100.00;100228.76;1664820;85;21081;-66
2022/06/11 02:45:44;;;;;;;44.63;31.73;;;;;;;24.43;99.41;100230.72;1642553;85;21387;-57
2022/06/11 02:48:13;;;;;;;39.80;33.17;;;;;;;24.91;93.05;100225.05;1676671;84;21441;-57
2022/06/11 02:50:40;;;;;;;46.10;32.70;;;;;;;25.51;85.36;100227.48;1677027;84;21052;-58
2022/06/11 02:53:07;;;;;;;41.60;33.27;;;;;;;26.07;77.66;100224.73;1675839;85;21123;-59
2022/06/11 02:55:35;;;;;;;39.00;34.38;;;;;;;26.69;72.42;100222.27;1673337;85;20964;-65
2022/06/11 02:58:03;;;;;;;45.12;35.28;;;;;;;27.38;65.97;100214.44;1675616;85;20953;-58
2022/06/11 03:00:35;;;;;;;47.38;32.85;;;;;;;28.02;61.67;100223.92;1678431;85;22169;-57
2022/06/11 03:03:02;;;;;;;43.70;32.75;;;;;;;28.49;58.22;100218.36;1676640;85;22302;-64
2022/06/11 03:05:32;;;;;;;40.78;33.13;;;;;;;29.01;54.98;100210.70;1669855;85;21698;-58
2022/06/11 03:08:00;;;;;;;38.75;33.88;;;;;;;29.52;52.76;100214.74;1661016;85;21061;-57
2022/06/11 03:10:29;;;;;;;38.00;31.05;;;;;;;29.90;50.13;100216.94;1663013;85;21041;-57
2022/06/11 03:12:56;;;;;;;43.02;31.62;;;;;;;30.09;48.66;100212.61;1656766;85;21471;-65
2022/06/11 03:15:24;;;;;;;36.25;29.98;;;;;;;30.18;48.58;100213.44;1657991;85;21522;-65
2022/06/11 03:17:52;;;;;;;40.95;31.37;;;;;;;30.43;47.44;100218.03;1641821;86;22370;-58
2022/06/11 03:20:22;;;;;;;39.55;31.20;;;;;;;30.71;46.38;100217.13;1662299;84;20980;-57
2022/06/11 03:22:50;;;;;;;36.38;32.25;;;;;;;31.10;45.40;100213.97;1661618;86;21075;-59
2022/06/11 03:25:17;;;;;;;38.73;31.85;;;;;;;31.57;43.81;100219.38;1651719;86;21075;-57
2022/06/11 03:27:44;;;;;;;40.25;30.68;;;;;;;31.70;42.48;100218.34;1699759;84;20937;-59
2022/06/11 03:30:13;;;;;;;33.67;30.08;;;;;;;31.84;42.28;100224.85;1700461;84;21168;-57
2022/06/11 03:32:40;;;;;;;36.38;28.23;;;;;;;32.10;41.39;100228.76;1700500;84;21708;-58
2022/06/11 03:35:08;;;;;;;36.17;29.98;;;;;;;32.43;40.51;100226.72;1699757;84;21034;-57
2022/06/11 03:37:35;;;;;;;34.18;28.65;;;;;;;32.89;39.05;100226.98;1662173;86;20988;-58
2022/06/11 03:40:04;;;;;;;38.38;32.23;;;;;;;33.04;37.95;100222.10;1661225;86;21552;-58
2022/06/11 03:42:32;;;;;;;49.77;39.60;;;;;;;33.22;37.41;100221.32;1700150;84;21811;-57
2022/06/11 03:44:59;;;;;;;40.38;35.15;;;;;;;33.34;35.91;100221.35;1700350;82;21734;-58
2022/06/11 03:47:26;;;;;;;41.42;34.60;;;;;;;33.54;35.84;100215.63;1705059;82;21772;-57
2022/06/11 03:49:53;;;;;;;42.85;37.45;;;;;;;33.75;35.39;100220.89;1699968;84;21073;-59
2022/06/11 03:52:22;;;;;;;48.80;42.45;;;;;;;34.14;34.98;100218.83;1700539;84;21078;-57
2022/06/11 03:54:54;;;;;;;50.17;44.60;;;;;;;34.41;34.22;100221.89;1690377;84;21300;-64
2022/06/11 03:57:21;;;;;;;45.70;40.75;;;;;;;34.66;33.74;100222.59;1700517;84;20947;-57
2022/06/11 03:59:48;;;;;;;42.25;36.60;;;;;;;34.79;33.23;100221.97;1661996;86;21450;-58
2022/06/11 04:02:16;;;;;;;47.55;41.25;;;;;;;34.85;33.03;100213.80;1661435;85;20992;-58
2022/06/11 04:04:43;;;;;;;50.17;43.35;;;;;;;35.24;32.29;100220.81;1661247;86;22014;-57
2022/06/11 04:07:10;;;;;;;49.38;43.85;;;;;;;35.49;31.76;100212.70;1677340;85;21227;-64
2022/06/11 04:09:40;;;;;;;49.90;44.38;;;;;;;35.62;31.65;100218.05;1682874;84;21063;-57
2022/06/11 04:12:11;;;;;;;51.73;44.10;;;;;;;35.81;31.28;100217.51;1680030;84;21454;-63
2022/06/11 04:14:39;;;;;;;54.13;44.80;;;;;;;36.04;31.23;100216.28;1677702;84;22042;-57
2022/06/11 04:17:12;;;;;;;54.65;46.95;;;;;;;36.37;30.97;100217.72;1679379;84;21063;-61
2022/06/11 04:19:42;;;;;;;53.55;44.38;;;;;;;36.63;30.46;100219.77;1679218;84;21230;-57
2022/06/11 04:22:09;;;;;;;50.63;45.20;;;;;;;36.88;29.86;100216.14;1718685;82;21018;-65
2022/06/11 04:24:36;;;;;;;50.15;44.58;;;;;;;37.20;29.92;100214.55;1718477;82;20950;-60
2022/06/11 04:27:05;;;;;;;50.15;44.27;;;;;;;37.61;28.60;100213.45;1718715;82;21255;-65
2022/06/11 04:29:36;;;;;;;50.27;44.87;;;;;;;37.77;28.61;100215.41;1717111;82;21072;-60
2022/06/11 04:32:05;;;;;;;50.12;44.93;;;;;;;38.04;28.19;100217.56;1713882;82;21291;-57
2022/06/11 04:34:34;;;;;;;54.35;46.18;;;;;;;38.38;28.22;100218.38;1712975;83;21514;-56
2022/06/11 04:37:02;;;;;;;53.73;48.02;;;;;;;38.74;27.81;100211.91;1718349;82;21059;-61
2022/06/11 04:39:31;;;;;;;54.40;47.53;;;;;;;39.07;27.55;100214.38;1714214;82;21060;-56
2022/06/11 04:41:59;;;;;;;53.38;47.93;;;;;;;39.17;27.31;100216.37;1717606;82;20948;-55
2022/06/11 04:44:26;;;;;;;56.58;48.23;;;;;;;39.34;27.06;100221.22;1716353;82;21207;-63
2022/06/11 04:46:55;;;;;;;54.73;48.85;;;;;;;39.45;26.64;100221.88;1717221;82;21854;-65
2022/06/11 04:49:22;;;;;;;55.15;49.25;;;;;;;39.50;26.21;100219.57;1713421;83;20939;-61
2022/06/11 04:51:49;;;;;;;54.25;48.38;;;;;;;39.66;26.10;100219.27;1714559;82;21116;-58
2022/06/11 04:54:16;;;;;;;50.78;45.58;;;;;;;40.05;25.75;100210.53;1718019;82;21478;-60
2022/06/11 04:56:44;;;;;;;49.13;43.75;;;;;;;40.47;25.93;100207.75;1713547;83;21278;-60
2022/06/11 04:59:11;;;;;;;48.02;42.98;;;;;;;40.79;25.39;100212.67;1714420;83;20995;-63
2022/06/11 05:01:40;;;;;;;50.75;45.40;;;;;;;40.93;25.04;100214.64;1714245;83;21009;-57
2022/06/11 05:04:08;;;;;;;52.13;46.75;;;;;;;40.83;24.89;100215.41;1715063;83;20969;-59
2022/06/11 05:06:39;;;;;;;48.87;43.78;;;;;;;40.84;24.71;100218.34;1717908;82;20995;-58
2022/06/11 05:09:09;;;;;;;49.08;43.42;;;;;;;41.09;24.76;100210.17;1715754;83;21267;-62
2022/06/11 05:11:36;;;;;;;46.42;41.55;;;;;;;41.42;24.43;100220.52;1717469;82;21103;-56
2022/06/11 05:14:05;;;;;;;45.03;40.15;;;;;;;41.79;23.98;100212.59;1715408;83;21515;-56
2022/06/11 05:16:32;;;;;;;46.37;41.13;;;;;;;42.22;23.26;100215.16;1716189;82;21078;-62
2022/06/11 05:19:00;;;;;;;46.88;42.03;;;;;;;42.52;23.04;100215.98;1715308;83;21524;-56
2022/06/11 05:21:27;;;;;;;46.58;41.95;;;;;;;42.83;22.90;100216.77;1718745;82;21239;-57
2022/06/11 05:23:54;;;;;;;44.50;39.90;;;;;;;43.11;21.96;100218.50;1717679;82;21357;-56
2022/06/11 05:26:25;;;;;;;43.48;38.88;;;;;;;43.16;21.50;100212.00;1716209;82;21002;-61
2022/06/11 05:28:52;;;;;;;43.42;39.08;;;;;;;43.33;20.89;100210.84;1717466;82;21692;-55
2022/06/11 05:31:20;;;;;;;41.83;37.78;;;;;;;43.56;20.55;100217.88;1718170;82;21365;-62
2022/06/11 05:33:48;;;;;;;39.95;36.10;;;;;;;43.85;20.66;100218.92;1716305;82;21301;-56
2022/06/11 05:36:19;;;;;;;39.92;35.83;;;;;;;44.29;20.16;100219.95;1718317;82;20930;-56
2022/06/11 05:38:45;;;;;;;43.13;38.60;;;;;;;44.50;19.49;100222.39;1720762;82;21101;-63
2022/06/11 05:41:13;;;;;;;41.28;37.25;;;;;;;44.07;19.60;100224.36;1717617;82;21036;-64
2022/06/11 05:43:40;;;;;;;38.15;34.38;;;;;;;43.84;19.88;100223.64;1719965;82;21013;-57
2022/06/11 05:46:12;;;;;;;39.48;35.45;;;;;;;43.88;20.12;100220.88;1717096;82;21231;-58
2022/06/11 05:48:43;;;;;;;38.70;34.67;;;;;;;44.14;19.21;100217.39;1718141;82;21496;-60
2022/06/11 05:51:20;;;;;;;37.10;33.33;;;;;;;44.47;19.05;100219.09;1692855;83;22486;-63
2022/06/11 05:53:49;;;;;;;37.35;33.48;;;;;;;44.74;18.72;100218.31;1719751;82;21406;-57
2022/06/11 05:56:17;;;;;;;37.90;34.13;;;;;;;44.98;18.61;100217.13;1719386;82;21048;-57
2022/06/11 05:58:51;;;;;;;30.00;26.80;;;;;;;45.05;18.45;100221.17;1718574;82;21246;-59
2022/06/11 06:01:21;;;;;;;29.95;27.13;;;;;;;45.09;17.93;100219.73;1717502;82;21071;-57
2022/06/11 06:03:48;;;;;;;19.82;16.67;;;;;;;45.05;17.56;100221.17;1720851;82;21065;-57
2022/06/11 06:06:16;;;;;;;17.65;16.07;;;;;;;45.06;15.73;100213.09;1718893;82;21047;-56
2022/06/11 06:08:44;;;;;;;13.98;12.50;;;;;;;45.18;15.75;100219.17;1716471;82;21025;-60
2022/06/11 06:11:12;;;;;;;20.40;18.37;;;;;;;45.41;15.13;100208.11;1712164;82;21830;-56
2022/06/11 06:13:45;;;;;;;16.80;14.70;;;;;;;45.79;14.68;100209.16;1717796;82;21039;-57
2022/06/11 06:16:15;;;;;;;14.47;12.98;;;;;;;45.93;14.67;100209.49;1711601;83;21019;-55
2022/06/11 06:18:43;;;;;;;21.85;19.90;;;;;;;46.03;14.88;100205.13;1714741;82;20995;-58
2022/06/11 06:21:10;;;;;;;22.07;16.87;;;;;;;45.89;14.60;100205.44;1718474;82;21971;-58
2022/06/11 06:23:38;;;;;;;15.43;13.25;;;;;;;45.73;14.58;100201.20;1716802;82;21291;-58
2022/06/11 06:26:04;;;;;;;10.65;9.55;;;;;;;45.65;14.87;100197.05;1712249;83;21563;-58
2022/06/11 06:28:33;;;;;;;13.03;11.68;;;;;;;45.78;14.51;100199.34;1714120;82;21008;-57
2022/06/11 06:31:01;;;;;;;10.70;7.90;;;;;;;45.79;14.17;100198.14;1716144;82;21064;-57
2022/06/11 06:33:30;;;;;;;8.88;7.30;;;;;;;45.81;13.93;100192.39;1712136;82;21142;-56
2022/06/11 06:35:59;;;;;;;13.62;10.00;;;;;;;45.82;13.75;100191.81;1716351;82;21371;-56
2022/06/11 06:38:27;;;;;;;8.08;7.20;;;;;;;45.63;14.07;100199.64;1719863;82;21618;-56
2022/06/11 06:40:54;;;;;;;6.00;5.40;;;;;;;45.22;13.93;100200.63;1711743;83;21013;-57
2022/06/11 06:43:22;;;;;;;5.95;5.35;;;;;;;44.99;13.32;100198.05;1718223;82;21089;-56
2022/06/11 06:45:50;;;;;;;6.75;5.05;;;;;;;44.86;13.47;100206.74;1677021;84;21474;-58
2022/06/11 06:48:17;;;;;;;7.37;6.67;;;;;;;45.10;13.54;100204.16;1679121;84;22395;-56
2022/06/11 06:50:46;;;;;;;11.08;8.83;;;;;;;45.39;14.02;100201.66;1675957;84;21055;-64
2022/06/11 06:53:14;;;;;;;9.85;8.85;;;;;;;45.28;13.89;100206.59;1678390;84;21318;-56
2022/06/11 06:55:41;;;;;;;9.75;8.53;;;;;;;44.90;14.53;100206.85;1687508;84;21055;-55
2022/06/11 06:58:08;;;;;;;10.30;9.25;;;;;;;44.59;14.72;100197.91;1678386;84;20999;-57
2022/06/11 07:00:36;;;;;;;14.83;11.83;;;;;;;44.51;15.13;100201.95;1678345;84;21270;-61
2022/06/11 07:03:04;;;;;;;13.00;11.50;;;;;;;44.41;14.84;100202.91;1681888;84;21073;-63
2022/06/11 07:05:32;;;;;;;14.87;12.23;;;;;;;43.84;15.16;100203.64;1645046;85;21971;-55
2022/06/11 07:08:02;;;;;;;15.38;13.28;;;;;;;42.99;15.46;100203.30;1716048;82;20937;-55
2022/06/11 07:10:29;;;;;;;13.70;11.10;;;;;;;41.99;15.95;100208.05;1714365;82;21088;-55
2022/06/11 07:12:56;;;;;;;13.05;10.05;;;;;;;41.32;16.72;100202.91;1714379;82;21271;-56
2022/06/11 07:15:27;;;;;;;12.30;10.87;;;;;;;40.95;16.83;100201.94;1712247;82;21795;-57
2022/06/11 07:17:59;;;;;;;10.00;8.78;;;;;;;40.78;17.48;100211.71;1712309;82;21800;-58
2022/06/11 07:20:29;;;;;;;12.18;9.25;;;;;;;40.59;16.90;100212.86;1676280;84;21091;-60
2022/06/11 07:23:03;;;;;;;14.50;10.58;;;;;;;40.64;17.39;100199.39;1675969;84;21026;-66
2022/06/11 07:25:30;;;;;;;14.63;10.75;;;;;;;40.73;18.04;100207.42;1642472;85;21335;-57
2022/06/11 07:28:02;;;;;;;13.43;10.53;;;;;;;40.26;17.98;100212.56;1691148;83;21055;-57
2022/06/11 07:30:29;;;;;;;12.10;10.63;;;;;;;40.06;18.02;100213.45;1704932;83;21136;-58
2022/06/11 07:33:02;;;;;;;12.90;11.53;;;;;;;40.06;18.28;100214.81;1710707;83;21029;-64
2022/06/11 07:35:29;;;;;;;10.32;8.38;;;;;;;40.17;18.49;100210.20;1712061;83;21354;-57
2022/06/11 07:37:56;;;;;;;10.13;7.20;;;;;;;40.38;17.98;100207.51;1718854;82;21168;-64
2022/06/11 07:40:24;;;;;;;9.78;7.65;;;;;;;40.12;18.03;100207.83;1716429;82;21014;-58
2022/06/11 07:42:52;;;;;;;7.97;6.15;;;;;;;39.80;18.37;100207.68;1700587;83;20993;-65
2022/06/11 07:45:19;;;;;;;8.05;5.90;;;;;;;39.44;18.62;100216.20;1715471;82;21930;-56
2022/06/11 07:47:53;;;;;;;7.75;6.00;;;;;;;38.96;19.54;100211.56;1679076;84;21065;-56
2022/06/11 07:50:29;;;;;;;5.35;4.12;;;;;;;38.91;19.03;100205.88;1676310;84;21498;-58
2022/06/11 07:52:58;;;;;;;7.10;5.03;;;;;;;39.08;18.93;100198.22;1673838;84;40150;-57
2022/06/11 07:55:26;;;;;;;9.30;6.58;;;;;;;39.16;18.56;100199.83;1681462;84;21063;-57
2022/06/11 07:57:53;;;;;;;8.63;6.72;;;;;;;39.06;18.68;100192.34;1678029;84;21023;-57
2022/06/11 08:00:25;;;;;;;11.60;8.53;;;;;;;38.93;19.02;100199.46;1679632;84;21211;-57
2022/06/11 08:02:54;;;;;;;11.20;9.45;;;;;;;38.81;20.19;100201.11;1678194;84;22187;-61
2022/06/11 08:05:21;;;;;;;12.63;9.25;;;;;;;38.64;20.04;100202.50;1652576;85;21609;-55
2022/06/11 08:07:51;;;;;;;10.90;9.23;;;;;;;38.39;19.51;100206.32;1646598;86;21603;-58
2022/06/11 08:10:19;;;;;;;12.50;11.25;;;;;;;38.26;20.01;100202.24;1647537;86;21133;-58
2022/06/11 08:12:46;;;;;;;12.25;10.48;;;;;;;38.33;19.61;100194.73;1646631;86;21150;-57
2022/06/11 08:15:13;;;;;;;15.58;12.98;;;;;;;38.13;19.38;100194.91;1645661;86;22472;-57
2022/06/11 08:17:41;;;;;;;14.68;12.03;;;;;;;38.22;19.90;100194.03;1647366;86;21089;-57
2022/06/11 08:20:13;;;;;;;16.23;13.13;;;;;;;38.60;19.46;100191.34;1644530;86;21133;-58
2022/06/11 08:22:40;;;;;;;12.98;9.73;;;;;;;38.86;19.37;100191.22;1647806;86;21062;-57
2022/06/11 08:25:08;;;;;;;12.43;10.58;;;;;;;38.69;19.81;100191.25;1645395;86;21085;-59
2022/06/11 08:27:35;;;;;;;11.73;9.05;;;;;;;38.40;20.19;100190.77;1647660;86;21175;-56
2022/06/11 08:30:04;;;;;;;11.53;8.23;;;;;;;38.28;19.61;100184.19;1645546;86;21025;-57
2022/06/11 08:32:30;;;;;;;13.83;11.08;;;;;;;38.44;20.17;100191.00;1647786;86;21821;-56
2022/06/11 08:34:59;;;;;;;16.45;12.88;;;;;;;38.71;20.37;100192.22;1647668;86;21461;-60
2022/06/11 08:37:26;;;;;;;17.30;14.85;;;;;;;38.77;19.89;100183.14;1645150;86;21382;-57
2022/06/11 08:39:53;;;;;;;23.75;14.50;;;;;;;38.67;19.78;100179.16;1647972;86;21181;-64
2022/06/11 08:42:43;;;;;;;15.63;13.22;;;;;;;38.41;19.96;100172.67;1645304;86;21075;-60
2022/06/11 08:45:24;;;;;;;17.42;14.30;;;;;;;38.18;20.08;100177.46;1647831;86;21094;-59
2022/06/11 08:47:59;;;;;;;;;;;;;;;38.10;20.24;100182.04;1639045;86;21033;-56
2022/06/11 08:50:37;;;;;;;11.00;9.05;;;;;;;37.98;20.29;100181.71;1647532;86;20201;-60
2022/06/11 08:53:04;;;;;;;13.32;8.53;;;;;;;37.66;20.40;100175.84;1648982;86;21553;-57
2022/06/11 08:55:36;;;;;;;12.85;10.23;;;;;;;37.55;20.52;100184.44;1645211;86;21035;-56
2022/06/11 08:58:11;;;;;;;14.85;12.35;;;;;;;37.32;20.40;100182.33;1647255;86;21390;-56
2022/06/11 09:01:08;;;;;;;14.00;11.68;;;;;;;37.11;20.21;100178.12;1648106;86;21322;-56
2022/06/11 09:03:49;;;;;;;11.25;9.70;;;;;;;37.14;20.22;100177.97;1643373;86;22417;-58
2022/06/11 09:06:36;;;;;;;16.32;12.55;;;;;;;37.55;20.57;100179.00;1683074;85;21280;-56
2022/06/11 09:09:29;;;;;;;13.60;12.00;;;;;;;37.86;20.42;100169.69;1720692;82;21074;-59
2022/06/11 09:12:46;;;;;;;13.48;10.30;;;;;;;37.58;20.57;100174.73;1676116;85;21438;-58
2022/06/11 09:15:28;;;;;;;12.63;10.32;;;;;;;37.40;20.94;100171.77;1707921;83;21091;-58
2022/06/11 09:18:10;;;;;;;14.73;12.15;;;;;;;37.60;21.13;100168.38;1711842;82;21150;-57
2022/06/11 09:21:08;;;;;;;14.15;11.45;;;;;;;37.71;20.28;100167.94;1715669;82;20885;-58
2022/06/11 09:23:47;;;;;;;12.40;10.25;;;;;;;37.65;20.44;100163.95;1713048;83;21031;-57
2022/06/11 09:26:32;;;;;;;14.85;10.40;;;;;;;37.67;20.93;100164.39;1711399;83;21570;-57
2022/06/11 09:29:25;;;;;;;10.13;8.78;;;;;;;37.76;20.23;100163.52;1667280;85;22056;-58
2022/06/11 09:32:12;;;;;;;14.20;9.88;;;;;;;38.28;19.75;100158.33;1719719;82;21090;-57
2022/06/11 09:34:54;;;;;;;11.00;8.78;;;;;;;38.85;19.71;100156.96;1716662;82;21225;-57
2022/06/11 09:37:29;;;;;;;12.43;10.20;;;;;;;39.51;19.14;100152.15;1721812;82;21114;-57
2022/06/11 09:40:39;;;;;;;13.18;10.48;;;;;;;40.04;18.84;100148.87;1707108;82;21529;-57
2022/06/11 09:43:49;;;;;;;14.13;10.23;;;;;;;40.31;18.05;100147.44;1721133;82;21079;-58
2022/06/11 09:46:39;;;;;;;11.75;10.53;;;;;;;39.92;18.37;100151.38;1670939;85;21507;-57
2022/06/11 09:49:27;;;;;;;13.20;9.83;;;;;;;39.14;18.68;100155.83;1705401;82;21229;-59
2022/06/11 09:52:20;;;;;;;12.82;9.30;;;;;;;38.61;19.51;100152.07;1682060;83;21571;-58
2022/06/11 09:55:32;;;;;;;12.88;9.88;;;;;;;38.22;19.84;100147.75;1677281;83;21070;-58
2022/06/11 09:58:10;;;;;;;13.08;11.08;;;;;;;38.04;20.58;100149.52;1645412;83;21412;-57
2022/06/11 10:00:48;;;;;;;13.43;11.60;;;;;;;38.13;19.96;100143.78;1719039;82;21501;-57
2022/06/11 10:03:27;;;;;;;14.80;11.35;;;;;;;38.63;19.45;100142.92;1713747;82;21836;-65
2022/06/11 10:06:25;;;;;;;18.37;12.60;;;;;;;39.17;18.51;100138.68;1714652;83;21543;-58
2022/06/11 10:09:01;;;;;;;12.80;11.15;;;;;;;39.56;18.82;100130.76;1708583;82;21539;-65
2022/06/11 10:11:41;;;;;;;14.98;11.57;;;;;;;40.08;18.17;100130.56;1715423;82;21093;-57
2022/06/11 10:14:28;;;;;;;16.27;13.50;;;;;;;40.22;17.95;100126.53;1719417;82;21054;-58
2022/06/11 10:17:34;;;;;;;17.90;13.25;;;;;;;39.81;18.62;100136.33;1706469;82;21312;-57
2022/06/11 10:20:16;;;;;;;16.27;13.85;;;;;;;39.62;18.59;100128.44;1718253;82;21537;-58
2022/06/11 10:22:48;;;;;;;15.35;12.58;;;;;;;39.48;18.92;100127.02;1715948;82;21580;-57
2022/06/11 10:25:30;;;;;;;16.70;13.05;;;;;;;39.36;18.79;100129.47;1718461;82;20949;-59
2022/06/11 10:28:17;;;;;;;13.50;11.95;;;;;;;38.86;18.64;100121.73;1707117;82;21025;-57
2022/06/11 10:30:54;;;;;;;15.88;13.03;;;;;;;38.61;19.03;100121.52;1719401;82;21149;-57
2022/06/11 10:33:57;;;;;;;16.42;12.60;;;;;;;38.29;19.84;100131.30;1715612;82;21080;-59
2022/06/11 10:36:37;;;;;;;15.38;13.03;;;;;;;38.28;19.58;100132.46;1713436;82;21016;-58
2022/06/11 10:39:12;;;;;;;14.60;11.97;;;;;;;38.14;19.18;100119.48;1720523;82;21076;-59
2022/06/11 10:42:09;;;;;;;16.00;13.55;;;;;;;38.09;19.99;100117.09;1719049;82;21127;-57
2022/06/11 10:44:45;;;;;;;16.00;13.62;;;;;;;38.15;19.77;100115.59;1716914;82;21235;-57
2022/06/11 10:47:28;;;;;;;16.67;12.80;;;;;;;38.20;19.50;100117.41;1718272;82;20941;-57
2022/06/11 10:50:12;;;;;;;13.03;11.40;;;;;;;37.97;20.01;100106.67;1704834;83;21147;-61
2022/06/11 10:53:09;;;;;;;16.75;12.37;;;;;;;38.19;19.91;100109.63;1717257;82;21045;-57
2022/06/11 10:55:51;;;;;;;15.05;12.55;;;;;;;38.81;18.74;100109.83;1721536;82;21177;-58
2022/06/11 10:58:57;;;;;;;12.88;11.53;;;;;;;39.15;18.71;100106.94;1714918;82;21952;-57
2022/06/11 11:01:29;;;;;;;14.75;12.53;;;;;;;38.83;18.41;100114.34;1717699;82;21847;-58
2022/06/11 11:04:29;;;;;;;17.95;13.53;;;;;;;38.35;18.58;100107.48;1720473;82;21080;-58
2022/06/11 11:07:13;;;;;;;17.48;12.50;;;;;;;38.34;18.65;100109.20;1718339;82;21121;-57
2022/06/11 11:09:40;;;;;;;16.42;12.47;;;;;;;38.47;19.91;100106.41;1714721;82;20945;-66
2022/06/11 11:12:28;;;;;;;13.38;11.97;;;;;;;38.86;19.55;100103.23;1715849;82;21743;-66
2022/06/11 11:15:12;;;;;;;16.70;11.90;;;;;;;39.39;19.01;100101.44;1718552;82;21502;-57
2022/06/11 11:17:47;;;;;;;14.33;11.43;;;;;;;39.93;18.30;100095.65;1715986;82;20957;-66
2022/06/11 11:20:35;;;;;;;14.75;12.07;;;;;;;40.37;18.01;100093.97;1712751;82;21055;-57
2022/06/11 11:23:16;;;;;;;12.98;11.33;;;;;;;40.61;17.97;100094.37;1717276;82;21585;-65
2022/06/11 11:26:02;;;;;;;13.93;11.30;;;;;;;40.45;17.60;100087.92;1719990;82;21102;-57
2022/06/11 11:28:33;;;;;;;14.70;11.95;;;;;;;40.40;17.67;100081.48;1718005;82;21498;-66
2022/06/11 11:31:09;;;;;;;14.45;11.73;;;;;;;40.57;17.93;100087.55;1718137;82;21500;-58
2022/06/11 11:33:39;;;;;;;14.63;13.18;;;;;;;40.79;18.32;100080.12;1716707;82;21011;-59
2022/06/11 11:36:20;;;;;;;16.50;13.35;;;;;;;40.98;17.49;100079.50;1718123;82;20943;-67
2022/06/11 11:39:26;;;;;;;17.98;16.02;;;;;;;40.94;17.16;100072.67;1704545;82;21774;-57
2022/06/11 11:42:12;;;;;;;20.23;16.27;;;;;;;40.71;18.02;100072.33;1719207;82;21467;-65
2022/06/11 11:44:49;;;;;;;20.25;16.95;;;;;;;39.88;18.47;100080.41;1716603;82;21072;-57